Time;durP1;ratioP1;P1;durP2;ratioP2;P2;SDS_P1;SDS_P2;PMS_P1;PMS_P2;Temp;Humidity;BMP_temperature;BMP_pressure;BME280_temperature;BME280_humidity;BME280_pressure;Samples;Min_cycle;Max_cycle;Signal;HPM_P1;HPM_P2
2021/08/08 04:01:03;;;;;;;3.50;3.30;;;14.90;99.90;;;;;;5653025;23;20532;-70
2021/08/08 04:03:30;;;;;;;3.43;3.33;;;15.00;99.90;;;;;;4917239;29;20466;-70
2021/08/08 04:05:58;;;;;;;3.20;3.10;;;15.00;99.90;;;;;;4917980;29;20466;-70
2021/08/08 04:08:24;;;;;;;3.10;3.00;;;15.00;99.90;;;;;;4923289;29;20502;-70
2021/08/08 04:10:51;;;;;;;3.10;3.00;;;15.10;99.90;;;;;;4922499;29;20763;-70
2021/08/08 04:13:18;;;;;;;3.30;3.20;;;15.10;99.90;;;;;;4934497;29;20521;-69
2021/08/08 04:15:44;;;;;;;3.93;3.63;;;15.20;99.90;;;;;;4934716;29;20548;-70
2021/08/08 04:18:13;;;;;;;4.63;2.63;;;15.20;99.90;;;;;;4933996;29;20501;-70
2021/08/08 04:20:40;;;;;;;2.70;2.60;;;15.20;99.90;;;;;;4934191;29;20481;-69
2021/08/08 04:23:08;;;;;;;2.30;2.20;;;15.30;99.90;;;;;;4934428;29;20576;-70
2021/08/08 04:25:34;;;;;;;2.50;2.40;;;15.30;99.90;;;;;;4934183;29;20466;-69
2021/08/08 04:28:01;;;;;;;2.03;2.03;;;15.30;99.90;;;;;;4934830;29;20536;-70
2021/08/08 04:30:28;;;;;;;2.93;2.83;;;15.40;99.90;;;;;;4934315;29;20485;-69
2021/08/08 04:32:54;;;;;;;2.43;2.30;;;15.50;99.90;;;;;;4934928;29;20471;-69
2021/08/08 04:35:22;;;;;;;2.00;1.90;;;15.40;99.90;;;;;;4937207;29;20839;-69
2021/08/08 04:37:49;;;;;;;2.93;2.50;;;15.50;99.90;;;;;;4935892;29;20548;-69
2021/08/08 04:40:16;;;;;;;2.10;2.00;;;15.50;99.90;;;;;;4934533;29;20462;-69
2021/08/08 04:42:42;;;;;;;2.70;2.60;;;15.50;99.90;;;;;;4934296;29;20524;-69
2021/08/08 04:45:10;;;;;;;2.17;2.07;;;15.70;99.90;;;;;;4934245;29;20587;-70
2021/08/08 04:47:36;;;;;;;2.20;2.00;;;16.20;99.90;;;;;;4934191;29;20883;-70
2021/08/08 04:50:03;;;;;;;1.60;1.60;;;16.80;99.90;;;;;;4933997;29;20470;-70
2021/08/08 04:52:36;;;;;;;1.00;1.00;;;17.40;99.90;;;;;;4928654;29;20496;-69
2021/08/08 04:55:03;;;;;;;3.13;1.47;;;17.70;99.90;;;;;;4934336;29;20489;-69
2021/08/08 04:57:30;;;;;;;1.33;1.10;;;17.70;99.90;;;;;;4934366;29;20901;-69
2021/08/08 04:59:57;;;;;;;1.60;1.30;;;17.30;99.90;;;;;;4935035;29;20899;-69
2021/08/08 05:02:23;;;;;;;1.80;1.80;;;17.00;99.90;;;;;;4937000;29;21001;-69
2021/08/08 05:04:50;;;;;;;2.63;1.70;;;16.90;99.90;;;;;;4937718;29;20469;-69
2021/08/08 05:07:17;;;;;;;1.50;1.50;;;16.60;99.90;;;;;;4937317;29;20516;-69
2021/08/08 05:09:45;;;;;;;1.73;1.63;;;16.50;99.90;;;;;;4938042;29;20477;-69
2021/08/08 05:12:12;;;;;;;1.73;1.73;;;16.30;99.90;;;;;;4936780;29;20492;-69
2021/08/08 05:14:39;;;;;;;3.03;1.90;;;16.30;99.90;;;;;;4937676;29;20473;-69
2021/08/08 05:17:06;;;;;;;2.10;2.00;;;16.20;99.90;;;;;;4936574;29;20489;-70
2021/08/08 05:19:33;;;;;;;1.90;1.47;;;16.20;99.90;;;;;;4937054;29;20492;-69
2021/08/08 05:21:59;;;;;;;1.50;1.50;;;16.10;99.90;;;;;;4937068;29;20540;-69
2021/08/08 05:24:26;;;;;;;1.70;1.60;;;16.10;99.90;;;;;;4938955;29;20937;-69
2021/08/08 05:26:56;;;;;;;2.23;2.23;;;16.20;99.90;;;;;;4938922;29;20462;-69
2021/08/08 05:29:23;;;;;;;2.63;1.97;;;16.30;99.90;;;;;;4938976;29;20473;-69
2021/08/08 05:31:50;;;;;;;1.83;1.83;;;16.40;99.90;;;;;;4936454;29;20496;-69
2021/08/08 05:34:17;;;;;;;2.07;2.07;;;16.40;99.90;;;;;;4936246;29;20470;-69
2021/08/08 05:36:43;;;;;;;2.73;2.60;;;16.50;99.90;;;;;;4936569;29;20868;-69
2021/08/08 05:39:10;;;;;;;2.70;2.60;;;16.60;99.90;;;;;;4936713;29;20466;-68
2021/08/08 05:41:37;;;;;;;2.57;2.57;;;16.60;99.90;;;;;;4927698;29;21038;-68
2021/08/08 05:44:05;;;;;;;3.30;3.10;;;16.70;99.90;;;;;;4917800;29;20534;-69
2021/08/08 05:46:32;;;;;;;2.87;2.77;;;16.70;99.90;;;;;;4934013;29;20985;-69
2021/08/08 05:48:58;;;;;;;2.67;2.57;;;16.70;99.90;;;;;;4917600;29;20470;-70
2021/08/08 05:51:25;;;;;;;3.07;2.97;;;16.70;99.90;;;;;;4932922;29;20639;-67
2021/08/08 05:53:52;;;;;;;2.70;2.67;;;16.60;99.90;;;;;;4917700;29;20890;-68
2021/08/08 05:56:18;;;;;;;2.87;2.73;;;16.60;99.90;;;;;;4931485;29;20525;-68
2021/08/08 05:58:45;;;;;;;2.80;2.67;;;16.60;99.90;;;;;;4936433;29;20485;-70
2021/08/08 06:01:13;;;;;;;2.47;2.47;;;16.50;99.90;;;;;;4935926;29;20571;-70
2021/08/08 06:03:40;;;;;;;2.60;2.50;;;16.50;99.90;;;;;;4935800;29;20470;-73
2021/08/08 06:06:10;;;;;;;2.57;2.50;;;16.30;99.90;;;;;;4936167;29;20846;-70
2021/08/08 06:08:36;;;;;;;2.63;2.43;;;16.30;99.90;;;;;;4936452;29;20628;-69
2021/08/08 06:11:03;;;;;;;3.33;2.90;;;16.30;99.90;;;;;;4935160;28;20497;-68
2021/08/08 06:13:30;;;;;;;2.50;2.30;;;16.30;99.90;;;;;;4935090;29;20470;-70
2021/08/08 06:15:56;;;;;;;2.20;2.20;;;16.20;99.90;;;;;;4924922;29;20465;-70
2021/08/08 06:18:24;;;;;;;2.30;2.30;;;16.20;99.90;;;;;;4935792;29;20497;-71
2021/08/08 06:20:51;;;;;;;2.77;2.40;;;16.20;99.90;;;;;;4935241;29;20489;-70
2021/08/08 06:23:18;;;;;;;2.70;2.70;;;16.30;99.90;;;;;;4935933;29;20514;-70
2021/08/08 06:25:45;;;;;;;2.17;2.13;;;16.50;99.90;;;;;;4937227;29;20461;-70
2021/08/08 06:28:11;;;;;;;2.73;2.57;;;16.60;99.90;;;;;;4936083;29;20481;-70
2021/08/08 06:30:38;;;;;;;2.17;2.07;;;16.60;99.90;;;;;;4935852;29;20603;-70
2021/08/08 06:33:05;;;;;;;2.30;2.30;;;16.60;99.90;;;;;;4935573;28;20489;-70
2021/08/08 06:35:33;;;;;;;2.67;2.57;;;16.50;99.90;;;;;;4935897;29;20462;-69
2021/08/08 06:38:00;;;;;;;2.60;2.60;;;16.40;99.90;;;;;;4934916;29;20580;-68
2021/08/08 06:40:27;;;;;;;4.07;2.97;;;16.40;99.90;;;;;;4934961;29;20485;-69
2021/08/08 06:42:53;;;;;;;3.10;2.90;;;16.30;99.90;;;;;;4934724;29;20485;-68
2021/08/08 06:45:20;;;;;;;3.17;3.10;;;16.20;99.90;;;;;;4935417;29;20981;-68
2021/08/08 06:47:47;;;;;;;3.00;2.80;;;16.10;99.90;;;;;;4935316;29;20462;-69
2021/08/08 06:50:13;;;;;;;4.87;3.27;;;16.00;99.90;;;;;;4934796;29;20875;-69
2021/08/08 06:52:41;;;;;;;2.90;2.83;;;16.00;99.90;;;;;;4934868;29;20513;-69
2021/08/08 06:55:09;;;;;;;3.10;3.00;;;16.10;99.90;;;;;;4935596;29;20524;-69
2021/08/08 06:57:36;;;;;;;2.90;2.70;;;16.10;99.90;;;;;;4934926;29;20481;-69
2021/08/08 07:00:03;;;;;;;3.43;3.10;;;16.10;99.90;;;;;;4933518;29;20465;-68
2021/08/08 07:02:30;;;;;;;3.30;3.20;;;16.10;99.90;;;;;;4933101;28;20502;-69
2021/08/08 07:04:56;;;;;;;3.50;3.30;;;16.20;99.90;;;;;;4917135;29;20517;-69
2021/08/08 07:07:23;;;;;;;2.97;2.97;;;16.30;99.90;;;;;;4932421;29;20465;-70
2021/08/08 07:09:51;;;;;;;3.37;3.37;;;16.30;99.90;;;;;;4935070;29;20830;-68
2021/08/08 07:12:17;;;;;;;3.10;3.00;;;16.40;99.90;;;;;;4935288;29;20878;-70
2021/08/08 07:14:44;;;;;;;3.70;3.47;;;16.40;99.90;;;;;;4935003;29;20929;-70
2021/08/08 07:17:11;;;;;;;4.90;4.20;;;16.50;99.90;;;;;;4935193;29;20529;-70
2021/08/08 07:19:38;;;;;;;4.20;3.90;;;16.50;99.90;;;;;;4934721;29;20923;-70
2021/08/08 07:22:05;;;;;;;4.00;3.83;;;16.60;99.90;;;;;;4934364;29;20579;-69
2021/08/08 07:24:31;;;;;;;3.83;3.73;;;16.60;99.90;;;;;;4934850;29;20465;-70
2021/08/08 07:26:59;;;;;;;4.03;3.90;;;16.60;99.90;;;;;;4935489;29;20466;-68
2021/08/08 07:29:26;;;;;;;5.13;4.83;;;16.60;99.90;;;;;;4934826;28;20457;-67
2021/08/08 07:31:53;;;;;;;4.80;4.40;;;16.60;99.90;;;;;;4934181;29;20524;-67
2021/08/08 07:34:20;;;;;;;5.30;5.00;;;16.70;99.90;;;;;;4934169;29;20465;-68
2021/08/08 07:36:47;;;;;;;4.90;4.60;;;16.70;99.90;;;;;;4934926;29;21318;-66
2021/08/08 07:39:14;;;;;;;4.83;4.53;;;16.70;99.90;;;;;;4934490;29;20493;-67
2021/08/08 07:41:41;;;;;;;5.33;5.10;;;16.70;99.90;;;;;;4931599;29;21010;-67
2021/08/08 07:44:09;;;;;;;5.20;4.90;;;16.70;99.90;;;;;;4930430;29;20501;-68
2021/08/08 07:46:35;;;;;;;5.23;4.90;;;16.70;99.90;;;;;;4933944;29;20493;-69
2021/08/08 07:49:02;;;;;;;5.27;5.03;;;16.80;99.90;;;;;;4934075;29;20488;-69
2021/08/08 07:51:29;;;;;;;4.90;4.60;;;16.80;99.90;;;;;;4933246;29;20482;-71
2021/08/08 07:53:55;;;;;;;6.40;5.40;;;16.80;99.90;;;;;;4931952;29;20552;-71
2021/08/08 07:56:22;;;;;;;6.10;5.60;;;16.80;99.90;;;;;;4932724;29;21025;-71
2021/08/08 07:58:48;;;;;;;5.77;5.47;;;16.80;99.90;;;;;;4933871;29;20815;-73
2021/08/08 08:01:17;;;;;;;5.90;5.37;;;16.80;99.90;;;;;;4929943;29;21005;-72
2021/08/08 08:03:44;;;;;;;5.50;5.20;;;16.90;99.90;;;;;;4930833;29;20485;-70
2021/08/08 08:06:11;;;;;;;6.00;5.60;;;17.00;99.90;;;;;;4931678;29;20627;-70
2021/08/08 08:08:37;;;;;;;6.50;6.00;;;17.10;99.90;;;;;;4933406;29;20469;-71
2021/08/08 08:11:04;;;;;;;5.57;5.17;;;17.30;99.90;;;;;;4921488;29;20524;-71
2021/08/08 08:13:31;;;;;;;5.67;5.30;;;17.40;99.90;;;;;;4921993;29;20609;-70
2021/08/08 08:15:58;;;;;;;5.50;5.20;;;17.40;99.90;;;;;;4924826;29;20572;-71
2021/08/08 08:18:26;;;;;;;6.87;6.27;;;17.40;99.90;;;;;;4933819;29;20580;-71
2021/08/08 08:20:53;;;;;;;6.60;6.17;;;17.40;99.90;;;;;;4933059;29;20546;-72
2021/08/08 08:23:21;;;;;;;5.97;5.47;;;17.40;99.90;;;;;;4933640;29;20476;-72
2021/08/08 08:25:47;;;;;;;8.53;6.00;;;17.50;99.90;;;;;;4934408;29;20461;-73
2021/08/08 08:28:14;;;;;;;7.23;6.60;;;17.50;99.90;;;;;;4932912;29;20457;-70
2021/08/08 08:30:42;;;;;;;6.90;6.50;;;17.50;99.90;;;;;;4923897;29;20558;-71
2021/08/08 08:33:09;;;;;;;6.23;5.80;;;17.60;99.90;;;;;;4922974;29;20592;-71
2021/08/08 08:35:37;;;;;;;6.20;5.70;;;17.70;99.90;;;;;;4935983;28;20461;-71
2021/08/08 08:38:04;;;;;;;6.67;6.07;;;17.80;99.90;;;;;;4934775;29;21024;-70
2021/08/08 08:40:33;;;;;;;6.17;5.87;;;17.80;99.90;;;;;;4934052;29;20497;-70
2021/08/08 08:43:02;;;;;;;6.07;5.67;;;17.90;99.90;;;;;;4926513;29;20474;-70
2021/08/08 08:45:29;;;;;;;6.07;5.87;;;18.00;99.90;;;;;;4937385;29;20493;-71
2021/08/08 08:47:57;;;;;;;13.33;6.73;;;18.10;99.90;;;;;;4936274;28;20477;-71
2021/08/08 08:50:25;;;;;;;6.07;5.60;;;18.30;99.90;;;;;;4937213;29;20528;-71
2021/08/08 08:52:54;;;;;;;7.00;6.60;;;18.60;99.90;;;;;;4935365;29;20478;-71
2021/08/08 08:55:21;;;;;;;6.33;5.73;;;18.70;99.90;;;;;;4934594;29;20470;-71
2021/08/08 08:57:48;;;;;;;7.03;6.27;;;18.80;99.90;;;;;;4934798;29;20532;-68
2021/08/08 09:00:16;;;;;;;6.60;6.17;;;18.80;99.90;;;;;;4936002;28;20481;-67
2021/08/08 09:02:43;;;;;;;6.60;6.30;;;18.70;99.90;;;;;;4932412;29;20532;-69
2021/08/08 09:05:11;;;;;;;6.33;5.93;;;18.70;99.90;;;;;;4936381;29;20985;-71
2021/08/08 09:07:37;;;;;;;6.27;5.90;;;18.70;99.90;;;;;;4936701;29;20477;-71
2021/08/08 09:10:11;;;;;;;8.00;6.57;;;18.70;99.90;;;;;;4935609;29;20468;-72
2021/08/08 09:12:38;;;;;;;6.23;5.90;;;18.70;99.90;;;;;;4935389;28;20509;-71
2021/08/08 09:15:06;;;;;;;7.20;6.13;;;18.60;99.90;;;;;;4936864;29;20473;-71
2021/08/08 09:17:37;;;;;;;10.60;6.30;;;18.60;99.90;;;;;;4931272;29;20831;-70
2021/08/08 09:20:06;;;;;;;7.40;6.70;;;18.50;99.90;;;;;;4932293;29;20874;-72
2021/08/08 09:22:33;;;;;;;6.67;6.20;;;18.40;99.90;;;;;;4932655;29;20465;-71
2021/08/08 09:25:00;;;;;;;7.40;6.80;;;18.50;99.90;;;;;;4935647;29;20470;-70
2021/08/08 09:27:36;;;;;;;6.90;6.50;;;18.50;99.90;;;;;;4934492;29;20466;-69
2021/08/08 09:30:06;;;;;;;6.87;5.87;;;18.50;99.90;;;;;;4936700;29;20473;-69
2021/08/08 09:32:34;;;;;;;6.10;5.80;;;18.50;99.90;;;;;;4935888;29;20485;-72
2021/08/08 09:35:13;;;;;;;6.03;5.53;;;18.30;99.90;;;;;;4935499;29;20906;-70
2021/08/08 09:37:41;;;;;;;6.07;5.77;;;18.40;99.90;;;;;;4931000;29;20469;-70
2021/08/08 09:40:15;;;;;;;6.40;5.77;;;18.30;99.90;;;;;;4932538;29;20497;-68
2021/08/08 09:42:47;;;;;;;6.00;5.70;;;18.40;99.90;;;;;;4926447;29;20926;-68
2021/08/08 09:45:17;;;;;;;7.37;6.20;;;18.60;99.90;;;;;;4939401;29;20477;-68
2021/08/08 09:47:45;;;;;;;5.40;5.00;;;18.70;99.90;;;;;;4943339;28;20473;-68
2021/08/08 09:50:13;;;;;;;6.80;6.20;;;18.80;99.90;;;;;;4935569;29;20466;-67
2021/08/08 09:52:41;;;;;;;5.50;5.20;;;19.00;99.90;;;;;;4934246;29;20473;-68
2021/08/08 09:55:19;;;;;;;5.33;5.13;;;19.20;99.90;;;;;;4932577;28;20509;-68
2021/08/08 09:57:47;;;;;;;5.20;4.93;;;19.50;99.90;;;;;;4933200;29;20473;-68
2021/08/08 10:00:24;;;;;;;4.93;4.70;;;19.70;99.90;;;;;;4934589;29;20541;-70
2021/08/08 10:02:51;;;;;;;5.50;5.20;;;19.80;99.90;;;;;;4934895;29;20492;-68
2021/08/08 10:05:18;;;;;;;4.83;4.53;;;19.80;99.90;;;;;;4934818;28;20478;-69
2021/08/08 10:07:46;;;;;;;5.33;5.03;;;19.80;99.90;;;;;;4933206;29;20461;-69
2021/08/08 10:10:13;;;;;;;5.60;5.30;;;19.80;99.90;;;;;;4934128;29;20461;-69
2021/08/08 10:13:06;;;;;;;5.47;4.97;;;19.90;99.90;;;;;;4935308;29;20465;-68
2021/08/08 10:15:34;;;;;;;5.80;5.07;;;20.00;99.90;;;;;;4922187;28;20493;-68
2021/08/08 10:18:02;;;;;;;5.03;4.63;;;19.90;99.90;;;;;;4934954;29;20544;-69
2021/08/08 10:20:31;;;;;;;5.37;5.00;;;19.90;99.90;;;;;;4935467;29;20489;-68
2021/08/08 10:22:58;;;;;;;5.30;4.90;;;19.90;99.90;;;;;;4936242;29;20468;-69
2021/08/08 10:25:26;;;;;;;5.70;5.30;;;19.90;99.90;;;;;;4935313;29;20473;-71
2021/08/08 10:27:54;;;;;;;5.17;4.77;;;19.90;99.90;;;;;;4933414;29;20549;-69
2021/08/08 10:30:21;;;;;;;5.47;5.07;;;19.80;99.90;;;;;;4929887;29;20474;-69
2021/08/08 10:32:48;;;;;;;7.20;5.00;;;19.80;99.90;;;;;;4935886;29;20492;-68
2021/08/08 10:35:16;;;;;;;5.47;5.10;;;19.70;99.90;;;;;;4934619;29;20477;-70
2021/08/08 10:37:44;;;;;;;5.20;5.00;;;19.80;99.90;;;;;;4932988;29;20501;-70
2021/08/08 10:40:12;;;;;;;4.93;4.50;;;19.80;99.90;;;;;;4935263;29;20486;-69
2021/08/08 10:42:42;;;;;;;6.07;5.57;;;19.90;99.90;;;;;;4934976;29;20474;-69
2021/08/08 10:45:21;;;;;;;4.50;4.23;;;20.10;99.90;;;;;;4932514;29;20473;-70
2021/08/08 10:47:55;;;;;;;4.30;4.10;;;20.30;99.90;;;;;;4938296;29;20486;-68
2021/08/08 10:50:22;;;;;;;5.80;5.30;;;20.30;99.90;;;;;;4932704;28;20482;-70
2021/08/08 10:52:49;;;;;;;6.40;4.83;;;20.40;99.90;;;;;;4931388;29;20473;-71
2021/08/08 10:55:23;;;;;;;4.97;4.40;;;20.60;99.90;;;;;;4932190;29;20465;-70
2021/08/08 10:57:50;;;;;;;6.67;4.57;;;20.60;99.90;;;;;;4929669;29;20853;-71
2021/08/08 11:00:19;;;;;;;4.50;4.20;;;20.60;99.90;;;;;;4942383;29;20517;-71
2021/08/08 11:02:47;;;;;;;6.10;4.80;;;20.70;99.90;;;;;;4949149;28;20528;-71
2021/08/08 11:05:15;;;;;;;5.30;5.10;;;20.70;99.90;;;;;;4936625;29;20926;-69
2021/08/08 11:07:44;;;;;;;5.93;4.90;;;20.80;99.90;;;;;;4932731;29;20469;-72
2021/08/08 11:10:12;;;;;;;4.83;4.57;;;21.00;99.90;;;;;;4931035;29;20462;-70
2021/08/08 11:12:42;;;;;;;5.00;4.50;;;21.20;99.90;;;;;;4926817;29;20466;-69
2021/08/08 11:15:10;;;;;;;4.90;4.43;;;21.40;99.90;;;;;;4933770;29;20458;-69
2021/08/08 11:17:41;;;;;;;4.90;4.50;;;21.40;99.90;;;;;;4933693;29;20469;-70
2021/08/08 11:20:09;;;;;;;4.60;4.40;;;21.30;99.90;;;;;;4930357;29;20489;-70
2021/08/08 11:22:36;;;;;;;6.17;4.80;;;21.20;99.90;;;;;;4931094;29;20477;-71
2021/08/08 11:25:06;;;;;;;6.63;5.27;;;21.20;99.90;;;;;;4934222;29;20465;-71
2021/08/08 11:27:35;;;;;;;5.13;4.93;;;21.30;99.90;;;;;;4932668;29;20469;-72
2021/08/08 11:30:05;;;;;;;5.80;5.40;;;21.20;99.90;;;;;;4934719;28;20468;-72
2021/08/08 11:32:33;;;;;;;5.73;5.33;;;21.10;99.90;;;;;;4932922;29;20603;-70
2021/08/08 11:35:07;;;;;;;6.07;5.60;;;20.90;99.90;;;;;;4934822;29;20474;-71
2021/08/08 11:37:35;;;;;;;5.40;4.90;;;20.70;99.90;;;;;;4931401;29;20537;-71
2021/08/08 11:40:02;;;;;;;6.30;5.97;;;20.50;99.90;;;;;;4932016;29;20857;-72
2021/08/08 11:42:30;;;;;;;7.27;5.93;;;20.40;99.90;;;;;;4933440;28;20497;-71
2021/08/08 11:44:58;;;;;;;6.03;5.73;;;20.30;99.90;;;;;;4934357;29;20580;-71
2021/08/08 11:47:26;;;;;;;6.33;5.83;;;20.20;99.90;;;;;;4933183;29;20941;-72
2021/08/08 11:49:53;;;;;;;6.17;5.70;;;20.20;99.90;;;;;;4934226;29;20579;-71
2021/08/08 11:52:22;;;;;;;7.60;6.10;;;20.10;99.90;;;;;;4932451;29;20497;-71
2021/08/08 11:55:00;;;;;;;8.13;6.17;;;20.10;99.90;;;;;;4932026;29;20905;-71
2021/08/08 11:57:27;;;;;;;6.57;6.07;;;20.00;99.90;;;;;;4924538;29;21127;-69
2021/08/08 11:59:55;;;;;;;6.70;6.30;;;19.90;99.90;;;;;;4933810;29;20490;-68
2021/08/08 12:02:24;;;;;;;7.43;6.47;;;19.80;99.90;;;;;;4931947;29;20505;-70
2021/08/08 12:04:52;;;;;;;6.10;5.80;;;19.70;99.90;;;;;;4933865;29;20950;-70
2021/08/08 12:07:22;;;;;;;6.60;6.20;;;19.80;99.90;;;;;;4931214;29;20560;-71
2021/08/08 12:09:50;;;;;;;7.30;6.53;;;20.00;99.90;;;;;;4936588;29;20497;-70
2021/08/08 12:12:17;;;;;;;6.10;5.60;;;20.20;99.90;;;;;;4937498;29;20489;-68
2021/08/08 12:14:45;;;;;;;6.60;6.10;;;20.50;99.90;;;;;;4936613;28;20485;-70
2021/08/08 12:17:13;;;;;;;6.60;6.00;;;20.60;99.90;;;;;;4938161;29;20465;-71
2021/08/08 12:19:42;;;;;;;5.50;5.27;;;20.70;99.90;;;;;;4935546;29;20488;-70
2021/08/08 12:22:12;;;;;;;5.80;5.30;;;20.70;99.90;;;;;;4936339;29;20575;-70
2021/08/08 12:24:44;;;;;;;7.40;6.70;;;20.50;99.90;;;;;;4937419;29;20599;-70
2021/08/08 12:27:14;;;;;;;6.80;6.17;;;20.60;99.90;;;;;;4935887;28;20477;-70
2021/08/08 12:29:41;;;;;;;6.47;5.87;;;20.70;99.90;;;;;;4935640;29;20989;-71
2021/08/08 12:32:13;;;;;;;5.67;5.37;;;21.00;99.90;;;;;;4933525;29;20489;-70
2021/08/08 12:34:41;;;;;;;5.20;4.90;;;21.20;99.90;;;;;;4937422;29;20569;-71
2021/08/08 12:37:10;;;;;;;5.57;5.20;;;21.40;99.90;;;;;;4934793;29;20466;-71
2021/08/08 12:39:40;;;;;;;5.20;4.80;;;21.60;99.90;;;;;;4936136;29;21121;-70
2021/08/08 12:42:18;;;;;;;5.43;4.93;;;21.60;99.90;;;;;;4936241;29;20829;-71
2021/08/08 12:44:44;;;;;;;5.20;4.73;;;21.50;99.90;;;;;;4937462;29;20984;-70
2021/08/08 12:47:20;;;;;;;5.27;4.97;;;21.50;99.90;;;;;;4932845;29;20470;-69
2021/08/08 12:49:47;;;;;;;4.90;4.23;;;21.60;99.90;;;;;;4935401;29;20480;-70
2021/08/08 12:52:14;;;;;;;4.40;4.20;;;21.80;99.90;;;;;;4936547;29;20489;-70
2021/08/08 12:54:43;;;;;;;4.97;4.57;;;21.80;99.90;;;;;;4934160;29;20480;-69
2021/08/08 12:57:10;;;;;;;4.97;4.63;;;21.90;99.90;;;;;;4933137;29;21013;-68
2021/08/08 12:59:36;;;;;;;6.17;4.87;;;21.90;99.90;;;;;;4927367;29;20481;-70
2021/08/08 13:02:03;;;;;;;5.27;4.70;;;21.90;99.90;;;;;;4935638;29;20505;-67
2021/08/08 13:04:30;;;;;;;4.33;4.13;;;22.00;99.90;;;;;;4936413;28;20520;-70
2021/08/08 13:06:57;;;;;;;5.40;4.63;;;22.10;99.90;;;;;;4934900;29;20827;-69
2021/08/08 13:09:23;;;;;;;8.37;5.00;;;22.20;99.90;;;;;;4935526;29;20540;-68
2021/08/08 13:11:51;;;;;;;4.73;4.53;;;22.10;99.90;;;;;;4936010;29;20517;-69
2021/08/08 13:14:18;;;;;;;4.70;4.50;;;21.90;99.90;;;;;;4936167;28;20490;-70
2021/08/08 13:16:45;;;;;;;5.03;4.63;;;21.80;99.90;;;;;;4935403;29;20478;-69
2021/08/08 13:19:11;;;;;;;5.37;4.90;;;21.90;99.90;;;;;;4931794;29;20470;-70
2021/08/08 13:21:38;;;;;;;5.07;4.67;;;21.90;99.90;;;;;;4928812;29;20500;-70
2021/08/08 13:24:05;;;;;;;6.43;4.70;;;21.90;99.90;;;;;;4935436;29;20969;-71
2021/08/08 13:26:32;;;;;;;4.97;4.67;;;21.80;99.90;;;;;;4933885;28;20478;-71
2021/08/08 13:29:01;;;;;;;10.30;5.27;;;21.80;99.90;;;;;;4935794;29;20591;-70
2021/08/08 13:31:27;;;;;;;4.33;4.13;;;21.80;99.90;;;;;;4935219;29;20571;-70
2021/08/08 13:33:54;;;;;;;4.50;4.17;;;21.70;99.90;;;;;;4934946;29;20528;-70
2021/08/08 13:36:21;;;;;;;5.03;4.73;;;21.70;99.90;;;;;;4934466;28;20888;-72
2021/08/08 13:38:48;;;;;;;4.37;4.10;;;21.70;99.90;;;;;;4934600;29;20525;-69
2021/08/08 13:41:15;;;;;;;6.20;4.87;;;21.60;99.90;;;;;;4936294;29;20501;-70
2021/08/08 13:43:41;;;;;;;5.60;5.20;;;21.50;99.90;;;;;;4934488;29;20504;-72
2021/08/08 13:46:09;;;;;;;5.10;4.70;;;21.40;99.90;;;;;;4936612;29;20493;-71
2021/08/08 13:48:37;;;;;;;5.73;5.37;;;21.30;99.90;;;;;;4932642;28;20966;-71
2021/08/08 13:51:03;;;;;;;5.77;5.27;;;21.20;99.90;;;;;;4936753;29;20478;-70
2021/08/08 13:53:30;;;;;;;5.87;5.50;;;21.20;99.90;;;;;;4928392;29;20461;-70
2021/08/08 13:55:57;;;;;;;5.97;5.57;;;21.20;99.90;;;;;;4936462;29;20526;-71
2021/08/08 13:58:23;;;;;;;6.13;5.50;;;21.20;99.90;;;;;;4934930;28;20593;-71
2021/08/08 14:00:50;;;;;;;5.97;5.67;;;21.20;99.90;;;;;;4931357;29;20512;-71
2021/08/08 14:03:19;;;;;;;6.70;6.10;;;21.30;99.90;;;;;;4933711;29;20490;-70
2021/08/08 14:05:45;;;;;;;5.80;5.50;;;21.20;99.90;;;;;;4935923;29;20475;-70
2021/08/08 14:08:12;;;;;;;5.90;5.67;;;21.20;99.90;;;;;;4935284;29;20469;-70
2021/08/08 14:10:39;;;;;;;5.43;5.13;;;21.20;99.90;;;;;;4934911;28;20588;-71
2021/08/08 14:13:06;;;;;;;5.20;4.90;;;21.20;99.90;;;;;;4935362;29;20462;-71
2021/08/08 14:15:34;;;;;;;7.33;5.50;;;21.20;99.90;;;;;;4936203;29;20541;-71
2021/08/08 14:18:01;;;;;;;5.00;4.80;;;21.10;99.90;;;;;;4935351;29;20466;-71
2021/08/08 14:20:29;;;;;;;5.20;4.87;;;21.20;99.90;;;;;;4935699;29;20606;-69
2021/08/08 14:22:56;;;;;;;4.27;3.90;;;21.40;99.90;;;;;;4924596;29;20517;-70
2021/08/08 14:25:23;;;;;;;4.43;4.13;;;21.40;99.90;;;;;;4934801;29;20474;-70
2021/08/08 14:27:52;;;;;;;4.50;4.30;;;21.60;99.90;;;;;;4935515;29;20465;-71
2021/08/08 14:30:19;;;;;;;5.23;4.90;;;21.80;99.90;;;;;;4935470;29;20763;-69
2021/08/08 14:32:46;;;;;;;5.00;4.70;;;21.80;99.90;;;;;;4928084;29;20480;-71
2021/08/08 14:35:12;;;;;;;4.73;4.53;;;21.90;99.90;;;;;;4932191;29;20970;-70
2021/08/08 14:37:44;;;;;;;5.23;4.73;;;21.80;99.90;;;;;;4927092;29;20469;-70
2021/08/08 14:40:11;;;;;;;5.60;4.90;;;21.80;99.90;;;;;;4934697;29;20525;-72
2021/08/08 14:42:38;;;;;;;4.43;4.23;;;21.70;99.90;;;;;;4936648;28;20517;-71
2021/08/08 14:45:06;;;;;;;7.30;4.83;;;21.70;99.90;;;;;;4929211;29;20497;-69
2021/08/08 14:47:33;;;;;;;4.80;4.50;;;21.60;99.90;;;;;;4933650;28;20533;-70
2021/08/08 14:50:00;;;;;;;5.43;4.80;;;21.60;99.90;;;;;;4933539;29;21041;-70
2021/08/08 14:52:26;;;;;;;5.50;5.10;;;21.70;99.90;;;;;;4934098;29;20485;-71
2021/08/08 14:54:54;;;;;;;4.90;4.70;;;21.70;99.90;;;;;;4935693;29;20918;-71
2021/08/08 14:57:21;;;;;;;5.40;5.20;;;21.80;99.90;;;;;;4944489;29;20967;-70
2021/08/08 14:59:48;;;;;;;5.27;4.77;;;21.80;99.90;;;;;;4935702;29;20981;-71
2021/08/08 15:02:15;;;;;;;6.03;5.53;;;22.00;99.90;;;;;;4931807;28;20520;-71
2021/08/08 15:04:41;;;;;;;5.50;5.20;;;22.10;99.90;;;;;;4934105;29;20457;-72
2021/08/08 15:07:08;;;;;;;5.73;5.27;;;22.30;99.90;;;;;;4933165;29;20471;-71
2021/08/08 15:09:34;;;;;;;5.30;4.90;;;22.50;99.90;;;;;;4930212;29;20560;-72
2021/08/08 15:12:05;;;;;;;5.40;5.13;;;22.70;99.90;;;;;;4928705;29;20546;-72
2021/08/08 15:14:32;;;;;;;5.20;4.90;;;22.60;99.90;;;;;;4927513;28;20589;-71
2021/08/08 15:16:59;;;;;;;6.33;5.70;;;22.40;99.90;;;;;;4928970;29;20471;-71
2021/08/08 15:19:26;;;;;;;5.37;5.17;;;22.20;99.90;;;;;;4926240;29;20474;-71
2021/08/08 15:21:53;;;;;;;5.83;5.43;;;22.10;99.90;;;;;;4929826;29;20501;-71
2021/08/08 15:24:19;;;;;;;5.70;5.40;;;21.90;99.90;;;;;;4929767;29;20465;-71
2021/08/08 15:26:46;;;;;;;5.87;5.57;;;21.80;99.90;;;;;;4931795;29;20478;-71
2021/08/08 15:29:14;;;;;;;5.50;5.30;;;21.70;99.90;;;;;;4935745;29;20469;-69
2021/08/08 15:31:40;;;;;;;5.67;5.27;;;21.60;99.90;;;;;;4936839;29;20512;-70
2021/08/08 15:34:07;;;;;;;5.53;5.20;;;21.60;99.90;;;;;;4927486;29;20476;-69
2021/08/08 15:36:34;;;;;;;5.57;5.27;;;21.50;99.90;;;;;;4937354;29;20465;-69
2021/08/08 15:39:01;;;;;;;5.70;5.20;;;21.50;99.90;;;;;;4934174;28;20485;-71
2021/08/08 15:41:29;;;;;;;5.30;4.90;;;21.50;99.90;;;;;;4936279;29;20878;-70
2021/08/08 15:43:55;;;;;;;6.60;6.13;;;21.50;99.90;;;;;;4935453;29;20983;-71
2021/08/08 15:46:25;;;;;;;6.60;6.00;;;21.50;99.90;;;;;;4936878;29;20466;-71
2021/08/08 15:48:52;;;;;;;5.40;5.10;;;21.50;99.90;;;;;;4933237;28;20589;-71
2021/08/08 15:51:19;;;;;;;5.70;5.30;;;21.60;99.90;;;;;;4935310;28;20513;-71
2021/08/08 15:53:46;;;;;;;5.33;5.03;;;21.60;99.90;;;;;;4932974;29;20462;-71
2021/08/08 15:56:12;;;;;;;5.50;5.10;;;21.70;99.90;;;;;;4927840;29;20557;-68
2021/08/08 15:58:39;;;;;;;5.67;5.17;;;21.70;99.90;;;;;;4923747;29;20920;-70
2021/08/08 16:01:06;;;;;;;5.77;5.37;;;21.80;99.90;;;;;;4938497;29;20488;-70
2021/08/08 16:03:34;;;;;;;5.90;5.60;;;21.80;99.90;;;;;;4924524;29;20542;-68
2021/08/08 16:06:00;;;;;;;5.70;5.40;;;21.70;99.90;;;;;;4931439;29;20465;-70
2021/08/08 16:08:27;;;;;;;5.60;5.30;;;21.70;99.90;;;;;;4930904;29;20474;-69
2021/08/08 16:10:54;;;;;;;5.30;5.10;;;21.70;99.90;;;;;;4934707;28;20477;-69
2021/08/08 16:13:21;;;;;;;5.70;5.13;;;21.80;99.90;;;;;;4934655;29;20915;-69
2021/08/08 16:15:47;;;;;;;5.70;5.40;;;21.80;99.90;;;;;;4933498;29;21043;-69
2021/08/08 16:18:14;;;;;;;6.20;5.77;;;21.70;99.90;;;;;;4935258;29;20470;-69
2021/08/08 16:20:42;;;;;;;8.27;4.90;;;21.70;99.90;;;;;;4935805;29;20581;-69
2021/08/08 16:23:09;;;;;;;5.37;5.07;;;21.70;99.90;;;;;;4930368;29;20965;-69
2021/08/08 16:25:36;;;;;;;5.80;5.50;;;21.60;99.90;;;;;;4935724;29;20543;-69
2021/08/08 16:28:03;;;;;;;6.23;5.40;;;21.40;99.90;;;;;;4935607;29;20473;-70
2021/08/08 16:30:29;;;;;;;5.30;5.03;;;21.40;99.90;;;;;;4935796;29;20560;-70
2021/08/08 16:32:57;;;;;;;5.63;5.20;;;21.40;99.90;;;;;;4935659;29;20500;-70
2021/08/08 16:35:23;;;;;;;5.67;5.20;;;21.50;99.90;;;;;;4935146;29;20470;-70
2021/08/08 16:37:52;;;;;;;5.20;4.87;;;21.30;99.90;;;;;;4935046;29;20544;-71
2021/08/08 16:40:19;;;;;;;5.60;5.30;;;21.20;99.90;;;;;;4934463;29;20843;-70
2021/08/08 16:42:45;;;;;;;4.60;4.40;;;21.10;99.90;;;;;;4923903;29;20474;-71
2021/08/08 16:45:12;;;;;;;5.50;5.20;;;21.10;99.90;;;;;;4934342;28;20545;-70
2021/08/08 16:47:39;;;;;;;4.93;4.63;;;21.10;99.90;;;;;;4932499;29;20466;-70